createdAt,value
2023-05-18T00:00:11.999Z,1.30
2023-05-18T00:05:19.357Z,1.17
2023-05-18T00:10:26.832Z,1.11
2023-05-18T00:15:34.122Z,1.30
2023-05-18T00:20:41.548Z,1.23
2023-05-18T00:25:48.848Z,1.10
2023-05-18T00:30:58.427Z,1.24
2023-05-18T00:36:05.738Z,1.25
2023-05-18T00:41:13.233Z,1.20
2023-05-18T00:46:20.436Z,1.12
2023-05-18T00:51:27.802Z,1.14
2023-05-18T00:56:39.121Z,1.22
2023-05-18T01:01:36.768Z,1.32
2023-05-18T01:06:44.012Z,1.14
2023-05-18T01:11:51.270Z,1.32
2023-05-18T01:16:58.592Z,1.40
2023-05-18T01:22:05.911Z,1.27
2023-05-18T01:27:13.084Z,1.25
2023-05-18T01:32:20.530Z,1.41
2023-05-18T01:37:27.750Z,1.25
2023-05-18T01:42:35.333Z,1.34
2023-05-18T01:47:42.544Z,1.36
2023-05-18T01:52:49.896Z,1.19
2023-05-18T01:57:57.117Z,1.26
2023-05-18T02:03:04.694Z,1.50
2023-05-18T02:08:11.861Z,1.45
2023-05-18T02:13:19.145Z,1.48
2023-05-18T02:18:26.388Z,1.30
2023-05-18T02:23:33.900Z,1.36
2023-05-18T02:28:40.702Z,1.43
2023-05-18T02:33:48.096Z,1.38
2023-05-18T02:38:55.286Z,1.39
2023-05-18T02:44:02.845Z,1.54
2023-05-18T02:49:10.072Z,1.64
2023-05-18T02:54:17.511Z,1.69
2023-05-18T02:59:24.711Z,1.67
2023-05-18T03:04:32.234Z,1.41
2023-05-18T03:09:39.641Z,1.43
2023-05-18T03:14:47.012Z,1.56
2023-05-18T03:19:54.205Z,1.59
2023-05-18T03:25:01.597Z,1.62
2023-05-18T03:30:08.946Z,1.52
2023-05-18T03:35:16.318Z,1.67
2023-05-18T03:40:23.631Z,1.46
2023-05-18T03:45:31.144Z,1.63
2023-05-18T03:50:38.264Z,1.95
2023-05-18T03:55:45.685Z,1.49
2023-05-18T04:00:52.981Z,1.54
2023-05-18T04:06:00.380Z,1.42
2023-05-18T04:11:07.672Z,1.62
2023-05-18T04:16:15.014Z,1.64
2023-05-18T04:21:22.156Z,1.57
2023-05-18T04:26:29.538Z,1.57
2023-05-18T04:31:36.784Z,1.73
2023-05-18T04:36:44.110Z,1.58
2023-05-18T04:41:51.340Z,1.38
2023-05-18T04:46:58.795Z,1.55
2023-05-18T04:52:05.998Z,1.46
2023-05-18T04:57:13.472Z,1.29
2023-05-18T05:02:20.828Z,1.36
2023-05-18T05:07:28.376Z,1.59
2023-05-18T05:12:35.606Z,1.42
2023-05-18T05:17:43.093Z,1.15
2023-05-18T05:22:50.305Z,1.28
2023-05-18T05:27:57.731Z,1.19
2023-05-18T05:33:04.971Z,1.28
2023-05-18T05:38:13.341Z,1.26
2023-05-18T05:43:19.579Z,0.95
2023-05-18T05:48:27.081Z,1.07
2023-05-18T05:58:38.818Z,1.31
2023-05-18T06:03:46.037Z,1.34
2023-05-18T06:08:46.415Z,1.10
2023-05-18T06:13:53.708Z,3.58
2023-05-18T06:19:01.138Z,0.86
2023-05-18T06:24:08.422Z,1.30
2023-05-18T06:29:15.864Z,0.94
2023-05-18T06:34:23.066Z,1.29
2023-05-18T06:39:30.608Z,1.16
2023-05-18T06:44:37.891Z,1.25
2023-05-18T06:49:45.458Z,1.05
2023-05-18T06:54:52.765Z,1.05
2023-05-18T07:00:00.202Z,0.99
2023-05-18T07:05:07.437Z,1.01
2023-05-18T07:10:14.847Z,2.30
2023-05-18T07:15:22.154Z,1.62
2023-05-18T07:20:29.548Z,1.59
2023-05-18T07:25:36.792Z,1.44
2023-05-18T07:30:44.102Z,1.09
2023-05-18T07:35:51.380Z,0.86
2023-05-18T07:40:58.832Z,0.95
2023-05-18T07:46:06.136Z,1.01
2023-05-18T07:51:13.563Z,0.89
2023-05-18T07:56:20.772Z,0.98
2023-05-18T08:01:28.179Z,0.80
2023-05-18T08:06:35.547Z,0.87
2023-05-18T08:11:43.012Z,0.97
2023-05-18T08:16:50.418Z,0.84
2023-05-18T08:21:57.629Z,0.92
2023-05-18T08:27:04.947Z,1.26
2023-05-18T08:32:12.617Z,0.94
2023-05-18T08:37:19.848Z,1.08
2023-05-18T08:42:34.462Z,0.90
2023-05-18T08:47:34.361Z,0.90
2023-05-18T08:52:41.695Z,1.12
2023-05-18T08:57:49.013Z,1.06
2023-05-18T09:02:56.446Z,1.07
2023-05-18T09:08:03.725Z,1.18
2023-05-18T09:13:11.083Z,0.90
2023-05-18T09:18:18.318Z,0.88
2023-05-18T09:23:25.756Z,0.80
2023-05-18T09:28:32.970Z,1.04
2023-05-18T09:33:40.532Z,0.79
2023-05-18T09:38:47.707Z,0.83
2023-05-18T09:43:55.189Z,0.75
2023-05-18T09:49:02.502Z,0.71
2023-05-18T09:54:09.911Z,0.71
2023-05-18T09:59:17.334Z,0.79
2023-05-18T10:04:24.898Z,0.75
2023-05-18T10:09:32.173Z,0.82
2023-05-18T10:14:39.692Z,1.03
2023-05-18T10:19:47.020Z,1.04
2023-05-18T10:25:05.623Z,0.92
2023-05-18T10:30:02.868Z,1.01
2023-05-18T10:35:12.925Z,1.04
2023-05-18T10:40:10.245Z,0.94
2023-05-18T10:45:20.325Z,1.15
2023-05-18T10:50:17.631Z,0.93
2023-05-18T10:55:27.559Z,0.80
2023-05-18T11:00:35.042Z,0.92
2023-05-18T11:05:42.347Z,0.95
2023-05-18T11:10:49.726Z,0.96
2023-05-18T11:15:57.092Z,0.91
2023-05-18T11:26:10.923Z,0.97
2023-05-18T11:36:19.993Z,0.89
2023-05-18T11:46:27.965Z,0.96
2023-05-18T11:56:36.004Z,0.89
2023-05-18T12:06:43.936Z,0.78
2023-05-18T12:16:53.086Z,0.93
2023-05-18T12:27:09.021Z,0.86
2023-05-18T12:32:20.894Z,0.92
2023-05-18T12:37:18.207Z,1.04
2023-05-18T12:42:26.269Z,0.80
2023-05-18T12:47:33.663Z,0.92
2023-05-18T12:52:41.031Z,0.97
2023-05-18T12:57:48.368Z,0.93
2023-05-18T13:02:55.792Z,1.05
2023-05-18T13:13:09.045Z,0.89
2023-05-18T13:23:19.230Z,0.79
2023-05-18T13:28:24.260Z,0.97
2023-05-18T13:33:31.753Z,0.98
2023-05-18T13:38:48.015Z,1.15
2023-05-18T13:43:45.421Z,0.85
2023-05-18T13:48:53.640Z,0.88
2023-05-18T13:54:00.950Z,1.03
2023-05-18T13:59:08.302Z,0.96
2023-05-18T14:04:15.651Z,1.02
2023-05-18T14:09:22.868Z,1.01
2023-05-18T14:19:36.022Z,0.97
2023-05-18T14:24:43.305Z,0.92
2023-05-18T14:29:50.570Z,1.02
2023-05-18T14:35:09.798Z,1.24
2023-05-18T14:40:07.200Z,0.87
2023-05-18T14:45:17.432Z,1.11
2023-05-18T14:50:14.853Z,0.96
2023-05-18T14:55:25.253Z,1.14
2023-05-18T15:00:22.706Z,1.17
2023-05-18T15:05:33.130Z,1.23
2023-05-18T15:10:30.607Z,1.08
2023-05-18T15:15:42.051Z,1.14
2023-05-18T15:20:40.002Z,1.13
2023-05-18T15:25:49.625Z,1.32
2023-05-18T15:30:46.928Z,1.36
2023-05-18T15:35:57.440Z,1.26
2023-05-18T15:40:54.716Z,1.27
2023-05-18T15:46:05.017Z,1.21
2023-05-18T15:51:02.312Z,1.18
2023-05-18T15:56:14.203Z,1.42
2023-05-18T16:01:11.669Z,1.13
2023-05-18T16:06:22.443Z,1.29
2023-05-18T16:11:19.894Z,1.08
2023-05-18T16:16:31.636Z,1.06
2023-05-18T16:21:28.996Z,1.40
2023-05-18T16:26:40.167Z,1.15
2023-05-18T16:31:36.646Z,1.08
2023-05-18T16:36:43.619Z,1.08
2023-05-18T16:41:50.904Z,1.38
2023-05-18T16:47:01.057Z,1.27
2023-05-18T16:51:58.461Z,1.30
2023-05-18T16:57:05.843Z,1.23
2023-05-18T17:02:13.574Z,1.20
2023-05-18T17:07:20.829Z,1.35
2023-05-18T17:12:40.382Z,1.10
2023-05-18T17:17:39.482Z,2.09
2023-05-18T17:27:46.243Z,1.44
2023-05-18T17:37:54.141Z,1.49
2023-05-18T17:48:03.131Z,1.68
2023-05-18T17:58:20.292Z,1.69
2023-05-18T18:03:30.282Z,1.48
2023-05-18T18:08:37.530Z,1.73
2023-05-18T18:13:48.209Z,1.58
2023-05-18T18:18:45.541Z,1.44
2023-05-18T18:23:55.785Z,1.48
2023-05-18T18:28:53.015Z,1.57
2023-05-18T18:34:03.904Z,1.52
2023-05-18T18:39:01.096Z,1.69
2023-05-18T18:44:09.890Z,1.86
2023-05-18T18:49:17.120Z,1.97
2023-05-18T18:54:24.463Z,1.54
2023-05-18T19:04:38.504Z,1.53
2023-05-18T19:14:46.419Z,1.83
2023-05-18T19:24:55.403Z,1.80
2023-05-18T19:35:11.521Z,1.70
2023-05-18T19:40:18.806Z,1.72
2023-05-18T19:45:26.264Z,1.50
2023-05-18T19:50:33.546Z,1.79
2023-05-18T19:55:40.938Z,1.57
2023-05-18T20:00:49.942Z,1.41
2023-05-18T20:05:57.347Z,1.72
2023-05-18T20:11:04.710Z,1.36
2023-05-18T20:16:12.269Z,1.80
2023-05-18T20:21:19.497Z,1.75
2023-05-18T20:26:26.945Z,1.74
2023-05-18T20:31:34.214Z,1.95
2023-05-18T20:36:41.743Z,1.63
2023-05-18T20:41:48.951Z,1.64
2023-05-18T20:46:56.323Z,1.92
2023-05-18T20:52:03.846Z,2.03
2023-05-18T20:57:11.363Z,1.98
2023-05-18T21:02:18.702Z,2.10
2023-05-18T21:07:26.202Z,2.01
2023-05-18T21:12:33.556Z,2.35
2023-05-18T21:17:40.925Z,2.28
2023-05-18T21:22:48.171Z,2.14
2023-05-18T21:27:55.513Z,2.23
2023-05-18T21:33:03.055Z,2.44
2023-05-18T21:38:09.711Z,2.39
2023-05-18T21:43:17.058Z,2.38
2023-05-18T21:48:24.614Z,2.30
2023-05-18T21:53:31.910Z,2.26
2023-05-18T21:58:39.451Z,2.31
2023-05-18T22:03:46.716Z,2.19
2023-05-18T22:08:54.059Z,2.27
2023-05-18T22:14:01.350Z,2.62
2023-05-18T22:19:09.000Z,2.36
2023-05-18T22:24:16.267Z,1.87
2023-05-18T22:29:23.676Z,2.14
2023-05-18T22:34:31.010Z,2.47
2023-05-18T22:39:38.516Z,2.40
2023-05-18T22:44:45.817Z,2.09
2023-05-18T22:49:53.250Z,2.47
2023-05-18T22:55:00.551Z,2.52
2023-05-18T23:00:07.947Z,2.34
2023-05-18T23:05:15.221Z,2.46
2023-05-18T23:15:27.073Z,2.31
2023-05-18T23:20:34.471Z,2.44
2023-05-18T23:25:41.631Z,2.21
2023-05-18T23:30:49.154Z,2.40
2023-05-18T23:35:56.368Z,2.47
2023-05-18T23:41:03.765Z,2.54
2023-05-18T23:46:11.009Z,2.23
2023-05-18T23:51:18.403Z,2.41
2023-05-18T23:56:25.773Z,2.55
